sensor_id;sensor_type;location;lat;lon;timestamp;P1;durP1;ratioP1;P2;durP2;ratioP2
68800;SDS011;55784;50.734;7.086;2023-04-01T00:01:29;1.97;;;0.20;;
68800;SDS011;55784;50.734;7.086;2023-04-01T00:03:54;2.13;;;0.20;;
68800;SDS011;55784;50.734;7.086;2023-04-01T00:06:21;1.05;;;0.10;;
68800;SDS011;55784;50.734;7.086;2023-04-01T00:08:46;1.48;;;0.20;;
68800;SDS011;55784;50.734;7.086;2023-04-01T00:11:12;2.20;;;0.20;;
68800;SDS011;55784;50.734;7.086;2023-04-01T00:13:37;1.40;;;0.13;;
68800;SDS011;55784;50.734;7.086;2023-04-01T00:16:03;1.50;;;0.13;;
68800;SDS011;55784;50.734;7.086;2023-04-01T00:18:29;4.20;;;0.30;;
68800;SDS011;55784;50.734;7.086;2023-04-01T00:20:55;1.38;;;0.20;;
68800;SDS011;55784;50.734;7.086;2023-04-01T00:23:20;2.20;;;0.30;;
68800;SDS011;55784;50.734;7.086;2023-04-01T00:25:46;1.67;;;0.13;;
68800;SDS011;55784;50.734;7.086;2023-04-01T00:28:13;2.88;;;0.40;;
68800;SDS011;55784;50.734;7.086;2023-04-01T00:30:39;3.15;;;0.52;;
68800;SDS011;55784;50.734;7.086;2023-04-01T00:33:05;1.10;;;0.20;;
68800;SDS011;55784;50.734;7.086;2023-04-01T00:35:30;3.33;;;0.30;;
68800;SDS011;55784;50.734;7.086;2023-04-01T00:37:57;3.43;;;0.40;;
68800;SDS011;55784;50.734;7.086;2023-04-01T00:42:54;5.63;;;1.00;;
68800;SDS011;55784;50.734;7.086;2023-04-01T00:45:25;3.50;;;0.43;;
68800;SDS011;55784;50.734;7.086;2023-04-01T00:47:56;1.58;;;0.10;;
68800;SDS011;55784;50.734;7.086;2023-04-01T00:50:24;3.13;;;0.25;;
68800;SDS011;55784;50.734;7.086;2023-04-01T00:52:51;2.00;;;0.10;;
68800;SDS011;55784;50.734;7.086;2023-04-01T00:55:18;1.45;;;0.10;;
68800;SDS011;55784;50.734;7.086;2023-04-01T00:57:45;3.15;;;0.30;;
68800;SDS011;55784;50.734;7.086;2023-04-01T01:00:12;2.22;;;0.25;;
68800;SDS011;55784;50.734;7.086;2023-04-01T01:02:40;2.55;;;0.20;;
68800;SDS011;55784;50.734;7.086;2023-04-01T01:05:07;1.27;;;0.20;;
68800;SDS011;55784;50.734;7.086;2023-04-01T01:07:38;1.67;;;0.10;;
68800;SDS011;55784;50.734;7.086;2023-04-01T01:18:02;1.98;;;0.13;;
68800;SDS011;55784;50.734;7.086;2023-04-01T01:34:51;1.77;;;0.23;;
68800;SDS011;55784;50.734;7.086;2023-04-01T01:37:23;1.75;;;0.10;;
68800;SDS011;55784;50.734;7.086;2023-04-01T01:39:56;2.42;;;0.20;;
68800;SDS011;55784;50.734;7.086;2023-04-01T01:42:26;0.77;;;0.10;;
68800;SDS011;55784;50.734;7.086;2023-04-01T01:44:53;1.15;;;0.10;;
68800;SDS011;55784;50.734;7.086;2023-04-01T01:47:22;1.10;;;0.10;;
68800;SDS011;55784;50.734;7.086;2023-04-01T01:49:50;0.82;;;0.10;;
68800;SDS011;55784;50.734;7.086;2023-04-01T01:52:16;2.35;;;0.10;;
68800;SDS011;55784;50.734;7.086;2023-04-01T01:54:50;2.13;;;0.10;;
68800;SDS011;55784;50.734;7.086;2023-04-01T01:57:16;2.70;;;0.15;;
68800;SDS011;55784;50.734;7.086;2023-04-01T01:59:45;1.37;;;0.10;;
68800;SDS011;55784;50.734;7.086;2023-04-01T02:02:12;0.82;;;0.00;;
68800;SDS011;55784;50.734;7.086;2023-04-01T02:04:40;0.93;;;0.10;;
68800;SDS011;55784;50.734;7.086;2023-04-01T02:07:09;0.90;;;0.17;;
68800;SDS011;55784;50.734;7.086;2023-04-01T02:09:39;1.67;;;0.20;;
68800;SDS011;55784;50.734;7.086;2023-04-01T02:12:08;1.47;;;0.10;;
68800;SDS011;55784;50.734;7.086;2023-04-01T02:17:21;1.50;;;0.30;;
68800;SDS011;55784;50.734;7.086;2023-04-01T02:19:56;2.13;;;0.22;;
68800;SDS011;55784;50.734;7.086;2023-04-01T02:22:25;1.13;;;0.10;;
68800;SDS011;55784;50.734;7.086;2023-04-01T02:24:53;2.17;;;0.10;;
68800;SDS011;55784;50.734;7.086;2023-04-01T02:27:22;1.33;;;0.10;;
68800;SDS011;55784;50.734;7.086;2023-04-01T02:29:49;2.70;;;0.20;;
68800;SDS011;55784;50.734;7.086;2023-04-01T02:32:15;0.52;;;0.00;;
68800;SDS011;55784;50.734;7.086;2023-04-01T02:34:42;1.30;;;0.03;;
68800;SDS011;55784;50.734;7.086;2023-04-01T02:37:08;1.92;;;0.10;;
68800;SDS011;55784;50.734;7.086;2023-04-01T02:39:33;0.50;;;0.00;;
68800;SDS011;55784;50.734;7.086;2023-04-01T02:41:59;1.23;;;0.10;;
68800;SDS011;55784;50.734;7.086;2023-04-01T02:44:24;0.40;;;0.00;;
68800;SDS011;55784;50.734;7.086;2023-04-01T02:46:50;1.03;;;0.10;;
68800;SDS011;55784;50.734;7.086;2023-04-01T02:49:15;1.13;;;0.03;;
68800;SDS011;55784;50.734;7.086;2023-04-01T02:51:40;0.93;;;0.10;;
68800;SDS011;55784;50.734;7.086;2023-04-01T02:54:06;0.97;;;0.00;;
68800;SDS011;55784;50.734;7.086;2023-04-01T02:56:31;1.15;;;0.10;;
68800;SDS011;55784;50.734;7.086;2023-04-01T02:58:57;0.30;;;0.00;;
68800;SDS011;55784;50.734;7.086;2023-04-01T03:01:22;0.53;;;0.10;;
68800;SDS011;55784;50.734;7.086;2023-04-01T03:03:48;1.75;;;0.10;;
68800;SDS011;55784;50.734;7.086;2023-04-01T03:06:14;0.97;;;0.10;;
68800;SDS011;55784;50.734;7.086;2023-04-01T03:08:40;1.52;;;0.17;;
68800;SDS011;55784;50.734;7.086;2023-04-01T03:11:06;1.30;;;0.10;;
68800;SDS011;55784;50.734;7.086;2023-04-01T03:13:31;0.45;;;0.10;;
68800;SDS011;55784;50.734;7.086;2023-04-01T03:15:57;0.35;;;0.10;;
68800;SDS011;55784;50.734;7.086;2023-04-01T03:18:22;1.83;;;0.10;;
68800;SDS011;55784;50.734;7.086;2023-04-01T03:20:48;1.07;;;0.10;;
68800;SDS011;55784;50.734;7.086;2023-04-01T03:23:13;0.97;;;0.10;;
68800;SDS011;55784;50.734;7.086;2023-04-01T03:25:39;0.55;;;0.10;;
68800;SDS011;55784;50.734;7.086;2023-04-01T03:28:04;0.93;;;0.00;;
68800;SDS011;55784;50.734;7.086;2023-04-01T03:30:30;0.33;;;0.10;;
68800;SDS011;55784;50.734;7.086;2023-04-01T03:32:56;0.85;;;0.05;;
68800;SDS011;55784;50.734;7.086;2023-04-01T03:35:22;0.47;;;0.00;;
68800;SDS011;55784;50.734;7.086;2023-04-01T03:37:48;1.10;;;0.20;;
68800;SDS011;55784;50.734;7.086;2023-04-01T03:40:15;0.90;;;0.00;;
68800;SDS011;55784;50.734;7.086;2023-04-01T03:42:41;2.23;;;0.10;;
68800;SDS011;55784;50.734;7.086;2023-04-01T03:45:06;1.40;;;0.10;;
68800;SDS011;55784;50.734;7.086;2023-04-01T03:47:32;1.40;;;0.20;;
68800;SDS011;55784;50.734;7.086;2023-04-01T03:49:57;1.83;;;0.10;;
68800;SDS011;55784;50.734;7.086;2023-04-01T03:52:22;0.70;;;0.00;;
68800;SDS011;55784;50.734;7.086;2023-04-01T03:54:48;0.33;;;0.03;;
68800;SDS011;55784;50.734;7.086;2023-04-01T03:57:16;0.98;;;0.10;;
68800;SDS011;55784;50.734;7.086;2023-04-01T03:59:41;1.10;;;0.10;;
68800;SDS011;55784;50.734;7.086;2023-04-01T04:02:07;0.53;;;0.00;;
68800;SDS011;55784;50.734;7.086;2023-04-01T04:04:32;1.30;;;0.20;;
68800;SDS011;55784;50.734;7.086;2023-04-01T04:07:01;1.10;;;0.20;;
68800;SDS011;55784;50.734;7.086;2023-04-01T04:09:30;0.25;;;0.00;;
68800;SDS011;55784;50.734;7.086;2023-04-01T04:11:56;0.93;;;0.00;;
68800;SDS011;55784;50.734;7.086;2023-04-01T04:14:22;0.90;;;0.07;;
68800;SDS011;55784;50.734;7.086;2023-04-01T04:16:54;0.45;;;0.00;;
68800;SDS011;55784;50.734;7.086;2023-04-01T04:19:19;0.00;;;0.00;;
68800;SDS011;55784;50.734;7.086;2023-04-01T04:21:45;0.40;;;0.00;;
68800;SDS011;55784;50.734;7.086;2023-04-01T04:24:10;0.17;;;0.00;;
68800;SDS011;55784;50.734;7.086;2023-04-01T04:26:35;0.38;;;0.00;;
68800;SDS011;55784;50.734;7.086;2023-04-01T04:29:01;0.63;;;0.00;;
68800;SDS011;55784;50.734;7.086;2023-04-01T04:31:27;0.95;;;0.03;;
68800;SDS011;55784;50.734;7.086;2023-04-01T04:33:53;0.60;;;0.00;;
68800;SDS011;55784;50.734;7.086;2023-04-01T04:36:19;1.50;;;0.10;;
68800;SDS011;55784;50.734;7.086;2023-04-01T04:38:45;0.20;;;0.00;;
68800;SDS011;55784;50.734;7.086;2023-04-01T04:41:11;0.73;;;0.10;;
68800;SDS011;55784;50.734;7.086;2023-04-01T04:43:39;1.20;;;0.10;;
68800;SDS011;55784;50.734;7.086;2023-04-01T04:46:06;0.88;;;0.10;;
68800;SDS011;55784;50.734;7.086;2023-04-01T04:48:35;0.63;;;0.00;;
68800;SDS011;55784;50.734;7.086;2023-04-01T04:51:01;0.93;;;0.00;;
68800;SDS011;55784;50.734;7.086;2023-04-01T04:53:27;0.68;;;0.08;;
68800;SDS011;55784;50.734;7.086;2023-04-01T04:55:52;0.67;;;0.00;;
68800;SDS011;55784;50.734;7.086;2023-04-01T04:58:18;0.83;;;0.00;;
68800;SDS011;55784;50.734;7.086;2023-04-01T05:00:44;1.60;;;0.10;;
68800;SDS011;55784;50.734;7.086;2023-04-01T05:03:10;0.77;;;0.00;;
68800;SDS011;55784;50.734;7.086;2023-04-01T05:05:35;0.52;;;0.00;;
68800;SDS011;55784;50.734;7.086;2023-04-01T05:08:01;0.63;;;0.00;;
68800;SDS011;55784;50.734;7.086;2023-04-01T05:10:26;0.20;;;0.00;;
68800;SDS011;55784;50.734;7.086;2023-04-01T05:12:52;0.95;;;0.00;;
68800;SDS011;55784;50.734;7.086;2023-04-01T05:15:17;0.80;;;0.00;;
68800;SDS011;55784;50.734;7.086;2023-04-01T05:17:43;0.10;;;0.00;;
68800;SDS011;55784;50.734;7.086;2023-04-01T05:20:08;1.37;;;0.60;;
68800;SDS011;55784;50.734;7.086;2023-04-01T05:22:33;0.60;;;0.20;;
68800;SDS011;55784;50.734;7.086;2023-04-01T05:24:59;2.47;;;0.10;;
68800;SDS011;55784;50.734;7.086;2023-04-01T05:27:24;0.38;;;0.00;;
68800;SDS011;55784;50.734;7.086;2023-04-01T05:29:50;0.50;;;0.10;;
68800;SDS011;55784;50.734;7.086;2023-04-01T05:32:15;0.73;;;0.00;;
68800;SDS011;55784;50.734;7.086;2023-04-01T05:34:40;2.03;;;0.10;;
68800;SDS011;55784;50.734;7.086;2023-04-01T05:37:06;1.40;;;0.20;;
68800;SDS011;55784;50.734;7.086;2023-04-01T05:39:35;0.52;;;0.05;;
68800;SDS011;55784;50.734;7.086;2023-04-01T05:42:01;0.45;;;0.00;;
68800;SDS011;55784;50.734;7.086;2023-04-01T05:44:27;1.40;;;0.00;;
68800;SDS011;55784;50.734;7.086;2023-04-01T05:46:52;1.53;;;0.07;;
68800;SDS011;55784;50.734;7.086;2023-04-01T05:49:17;0.60;;;0.00;;
68800;SDS011;55784;50.734;7.086;2023-04-01T05:51:43;0.73;;;0.00;;
68800;SDS011;55784;50.734;7.086;2023-04-01T05:54:08;0.40;;;0.10;;
68800;SDS011;55784;50.734;7.086;2023-04-01T05:56:33;0.53;;;0.13;;
68800;SDS011;55784;50.734;7.086;2023-04-01T05:58:58;1.60;;;0.20;;
68800;SDS011;55784;50.734;7.086;2023-04-01T06:01:24;1.93;;;0.10;;
68800;SDS011;55784;50.734;7.086;2023-04-01T06:03:49;1.27;;;0.10;;
68800;SDS011;55784;50.734;7.086;2023-04-01T06:06:16;0.30;;;0.10;;
68800;SDS011;55784;50.734;7.086;2023-04-01T06:08:48;0.88;;;0.10;;
68800;SDS011;55784;50.734;7.086;2023-04-01T06:11:29;0.00;;;0.00;;
68800;SDS011;55784;50.734;7.086;2023-04-01T06:23:00;0.77;;;0.10;;
68800;SDS011;55784;50.734;7.086;2023-04-01T06:30:58;1.80;;;0.13;;
68800;SDS011;55784;50.734;7.086;2023-04-01T06:34:08;1.45;;;0.10;;
68800;SDS011;55784;50.734;7.086;2023-04-01T06:36:51;2.75;;;0.30;;
68800;SDS011;55784;50.734;7.086;2023-04-01T06:39:25;0.73;;;0.10;;
68800;SDS011;55784;50.734;7.086;2023-04-01T06:42:04;3.30;;;0.40;;
68800;SDS011;55784;50.734;7.086;2023-04-01T06:47:33;1.48;;;0.22;;
68800;SDS011;55784;50.734;7.086;2023-04-01T06:56:17;1.60;;;0.20;;
68800;SDS011;55784;50.734;7.086;2023-04-01T06:58:52;2.58;;;0.32;;
68800;SDS011;55784;50.734;7.086;2023-04-01T07:01:54;1.52;;;0.20;;
68800;SDS011;55784;50.734;7.086;2023-04-01T07:04:35;1.58;;;0.13;;
68800;SDS011;55784;50.734;7.086;2023-04-01T07:07:05;1.53;;;0.30;;
68800;SDS011;55784;50.734;7.086;2023-04-01T07:09:40;1.27;;;0.30;;
68800;SDS011;55784;50.734;7.086;2023-04-01T07:12:14;1.73;;;0.40;;
68800;SDS011;55784;50.734;7.086;2023-04-01T07:14:44;3.45;;;0.50;;
68800;SDS011;55784;50.734;7.086;2023-04-01T07:17:20;1.90;;;0.25;;
68800;SDS011;55784;50.734;7.086;2023-04-01T07:22:33;1.83;;;0.40;;
68800;SDS011;55784;50.734;7.086;2023-04-01T07:25:14;2.17;;;0.35;;
68800;SDS011;55784;50.734;7.086;2023-04-01T07:27:42;3.03;;;0.77;;
68800;SDS011;55784;50.734;7.086;2023-04-01T07:30:15;2.50;;;0.55;;
68800;SDS011;55784;50.734;7.086;2023-04-01T07:32:44;2.70;;;0.40;;
68800;SDS011;55784;50.734;7.086;2023-04-01T07:35:52;2.80;;;0.75;;
68800;SDS011;55784;50.734;7.086;2023-04-01T07:38:41;2.65;;;0.70;;
68800;SDS011;55784;50.734;7.086;2023-04-01T07:43:53;2.05;;;0.40;;
68800;SDS011;55784;50.734;7.086;2023-04-01T07:55:33;1.95;;;0.50;;
68800;SDS011;55784;50.734;7.086;2023-04-01T07:58:14;2.67;;;0.43;;
68800;SDS011;55784;50.734;7.086;2023-04-01T08:06:37;1.80;;;0.30;;
68800;SDS011;55784;50.734;7.086;2023-04-01T08:09:25;2.95;;;0.50;;
68800;SDS011;55784;50.734;7.086;2023-04-01T08:12:21;1.25;;;0.30;;
68800;SDS011;55784;50.734;7.086;2023-04-01T08:20:53;1.77;;;0.40;;
68800;SDS011;55784;50.734;7.086;2023-04-01T08:23:33;2.67;;;0.30;;
68800;SDS011;55784;50.734;7.086;2023-04-01T08:26:06;3.00;;;0.60;;
68800;SDS011;55784;50.734;7.086;2023-04-01T08:28:39;1.67;;;0.30;;
68800;SDS011;55784;50.734;7.086;2023-04-01T08:31:13;2.40;;;0.30;;
68800;SDS011;55784;50.734;7.086;2023-04-01T08:33:45;2.15;;;0.30;;
68800;SDS011;55784;50.734;7.086;2023-04-01T08:36:14;1.63;;;0.20;;
68800;SDS011;55784;50.734;7.086;2023-04-01T08:38:49;1.85;;;0.30;;
68800;SDS011;55784;50.734;7.086;2023-04-01T08:44:03;1.02;;;0.20;;
68800;SDS011;55784;50.734;7.086;2023-04-01T08:46:54;1.25;;;0.20;;
68800;SDS011;55784;50.734;7.086;2023-04-01T08:54:46;5.00;;;0.30;;
68800;SDS011;55784;50.734;7.086;2023-04-01T08:57:53;1.88;;;0.30;;
68800;SDS011;55784;50.734;7.086;2023-04-01T09:00:31;3.58;;;0.38;;
68800;SDS011;55784;50.734;7.086;2023-04-01T09:14:27;3.88;;;0.30;;
68800;SDS011;55784;50.734;7.086;2023-04-01T09:17:17;1.83;;;0.20;;
68800;SDS011;55784;50.734;7.086;2023-04-01T09:20:03;1.67;;;0.20;;
68800;SDS011;55784;50.734;7.086;2023-04-01T09:22:51;3.40;;;0.30;;
68800;SDS011;55784;50.734;7.086;2023-04-01T09:28:03;2.25;;;0.32;;
68800;SDS011;55784;50.734;7.086;2023-04-01T09:36:45;3.63;;;0.40;;
68800;SDS011;55784;50.734;7.086;2023-04-01T09:44:36;1.58;;;0.30;;
68800;SDS011;55784;50.734;7.086;2023-04-01T09:47:20;1.67;;;0.40;;
68800;SDS011;55784;50.734;7.086;2023-04-01T09:50:03;2.33;;;0.40;;
68800;SDS011;55784;50.734;7.086;2023-04-01T10:09:59;1.35;;;0.30;;
68800;SDS011;55784;50.734;7.086;2023-04-01T10:29:43;2.75;;;0.30;;
68800;SDS011;55784;50.734;7.086;2023-04-01T10:55:19;3.35;;;0.60;;
68800;SDS011;55784;50.734;7.086;2023-04-01T11:01:01;1.67;;;0.40;;
68800;SDS011;55784;50.734;7.086;2023-04-01T11:11:47;2.28;;;0.43;;
68800;SDS011;55784;50.734;7.086;2023-04-01T11:23:44;1.55;;;0.40;;
68800;SDS011;55784;50.734;7.086;2023-04-01T11:26:45;1.55;;;0.30;;
68800;SDS011;55784;50.734;7.086;2023-04-01T11:29:19;2.37;;;0.30;;
68800;SDS011;55784;50.734;7.086;2023-04-01T11:32:20;2.13;;;0.40;;
68800;SDS011;55784;50.734;7.086;2023-04-01T11:41:13;2.28;;;0.40;;
68800;SDS011;55784;50.734;7.086;2023-04-01T11:46:39;2.63;;;0.40;;
68800;SDS011;55784;50.734;7.086;2023-04-01T11:49:24;1.35;;;0.30;;
68800;SDS011;55784;50.734;7.086;2023-04-01T11:51:57;3.00;;;0.68;;
68800;SDS011;55784;50.734;7.086;2023-04-01T11:54:28;2.45;;;0.30;;
68800;SDS011;55784;50.734;7.086;2023-04-01T11:57:13;2.27;;;0.43;;
68800;SDS011;55784;50.734;7.086;2023-04-01T12:03:24;1.52;;;0.40;;
68800;SDS011;55784;50.734;7.086;2023-04-01T12:06:02;2.20;;;0.40;;
68800;SDS011;55784;50.734;7.086;2023-04-01T12:08:44;2.83;;;0.50;;
68800;SDS011;55784;50.734;7.086;2023-04-01T12:11:29;2.23;;;0.30;;
68800;SDS011;55784;50.734;7.086;2023-04-01T12:34:52;3.30;;;0.90;;
68800;SDS011;55784;50.734;7.086;2023-04-01T12:40:20;2.87;;;1.00;;
68800;SDS011;55784;50.734;7.086;2023-04-01T12:49:27;2.63;;;0.50;;
68800;SDS011;55784;50.734;7.086;2023-04-01T12:52:10;3.97;;;0.80;;
68800;SDS011;55784;50.734;7.086;2023-04-01T12:57:33;3.00;;;0.60;;
68800;SDS011;55784;50.734;7.086;2023-04-01T13:03:10;2.15;;;0.40;;
68800;SDS011;55784;50.734;7.086;2023-04-01T13:06:00;2.40;;;0.52;;
68800;SDS011;55784;50.734;7.086;2023-04-01T13:08:49;10.27;;;4.43;;
68800;SDS011;55784;50.734;7.086;2023-04-01T13:22:39;4.13;;;1.13;;
68800;SDS011;55784;50.734;7.086;2023-04-01T13:25:10;5.65;;;2.28;;
68800;SDS011;55784;50.734;7.086;2023-04-01T13:27:56;2.97;;;0.93;;
68800;SDS011;55784;50.734;7.086;2023-04-01T13:30:50;6.13;;;2.70;;
68800;SDS011;55784;50.734;7.086;2023-04-01T13:39:27;4.97;;;1.00;;
68800;SDS011;55784;50.734;7.086;2023-04-01T13:44:22;5.40;;;2.00;;
68800;SDS011;55784;50.734;7.086;2023-04-01T13:47:03;7.25;;;2.80;;
68800;SDS011;55784;50.734;7.086;2023-04-01T13:57:52;6.63;;;2.35;;
68800;SDS011;55784;50.734;7.086;2023-04-01T14:03:03;5.80;;;1.70;;
68800;SDS011;55784;50.734;7.086;2023-04-01T14:11:39;3.87;;;1.00;;
68800;SDS011;55784;50.734;7.086;2023-04-01T14:23:12;3.93;;;0.93;;
68800;SDS011;55784;50.734;7.086;2023-04-01T14:42:59;4.07;;;1.30;;
68800;SDS011;55784;50.734;7.086;2023-04-01T14:54:30;3.17;;;0.93;;
68800;SDS011;55784;50.734;7.086;2023-04-01T14:59:45;4.25;;;1.60;;
68800;SDS011;55784;50.734;7.086;2023-04-01T15:05:39;3.60;;;1.00;;
68800;SDS011;55784;50.734;7.086;2023-04-01T15:10:49;4.63;;;1.53;;
68800;SDS011;55784;50.734;7.086;2023-04-01T15:19:14;3.08;;;0.80;;
68800;SDS011;55784;50.734;7.086;2023-04-01T15:21:54;3.78;;;0.70;;
68800;SDS011;55784;50.734;7.086;2023-04-01T15:24:40;3.40;;;0.80;;
68800;SDS011;55784;50.734;7.086;2023-04-01T15:41:14;7.03;;;1.63;;
68800;SDS011;55784;50.734;7.086;2023-04-01T15:43:58;4.10;;;1.15;;
68800;SDS011;55784;50.734;7.086;2023-04-01T15:46:26;2.37;;;0.60;;
68800;SDS011;55784;50.734;7.086;2023-04-01T15:57:38;3.00;;;0.60;;
68800;SDS011;55784;50.734;7.086;2023-04-01T16:00:24;2.80;;;0.60;;
68800;SDS011;55784;50.734;7.086;2023-04-01T16:03:00;2.55;;;0.70;;
68800;SDS011;55784;50.734;7.086;2023-04-01T16:09:13;2.58;;;0.50;;
68800;SDS011;55784;50.734;7.086;2023-04-01T16:17:05;4.87;;;0.90;;
68800;SDS011;55784;50.734;7.086;2023-04-01T16:19:54;2.97;;;0.70;;
68800;SDS011;55784;50.734;7.086;2023-04-01T16:30:48;2.30;;;0.50;;
68800;SDS011;55784;50.734;7.086;2023-04-01T16:44:44;4.40;;;1.10;;
68800;SDS011;55784;50.734;7.086;2023-04-01T16:47:17;3.00;;;0.70;;
68800;SDS011;55784;50.734;7.086;2023-04-01T16:49:46;2.92;;;0.70;;
68800;SDS011;55784;50.734;7.086;2023-04-01T16:52:15;4.70;;;0.80;;
68800;SDS011;55784;50.734;7.086;2023-04-01T16:55:02;2.60;;;0.75;;
68800;SDS011;55784;50.734;7.086;2023-04-01T17:00:16;2.90;;;0.60;;
68800;SDS011;55784;50.734;7.086;2023-04-01T17:03:04;3.08;;;0.75;;
68800;SDS011;55784;50.734;7.086;2023-04-01T17:05:42;3.05;;;0.75;;
68800;SDS011;55784;50.734;7.086;2023-04-01T17:10:53;4.33;;;0.80;;
68800;SDS011;55784;50.734;7.086;2023-04-01T17:19:39;3.33;;;0.80;;
68800;SDS011;55784;50.734;7.086;2023-04-01T17:22:21;2.33;;;0.60;;
68800;SDS011;55784;50.734;7.086;2023-04-01T17:28:05;2.60;;;0.68;;
68800;SDS011;55784;50.734;7.086;2023-04-01T17:30:39;4.18;;;1.00;;
68800;SDS011;55784;50.734;7.086;2023-04-01T17:35:59;4.35;;;0.93;;
68800;SDS011;55784;50.734;7.086;2023-04-01T17:44:45;4.25;;;1.23;;
68800;SDS011;55784;50.734;7.086;2023-04-01T18:01:40;4.03;;;1.00;;
68800;SDS011;55784;50.734;7.086;2023-04-01T18:04:18;4.53;;;1.00;;
68800;SDS011;55784;50.734;7.086;2023-04-01T18:12:25;3.17;;;0.70;;
68800;SDS011;55784;50.734;7.086;2023-04-01T18:15:17;4.72;;;1.13;;
68800;SDS011;55784;50.734;7.086;2023-04-01T18:17:58;3.88;;;1.00;;
68800;SDS011;55784;50.734;7.086;2023-04-01T18:23:19;4.03;;;1.00;;
68800;SDS011;55784;50.734;7.086;2023-04-01T18:25:47;3.80;;;1.00;;
68800;SDS011;55784;50.734;7.086;2023-04-01T18:33:31;3.67;;;0.93;;
68800;SDS011;55784;50.734;7.086;2023-04-01T18:36:24;3.60;;;0.90;;
68800;SDS011;55784;50.734;7.086;2023-04-01T18:39:33;4.60;;;1.10;;
68800;SDS011;55784;50.734;7.086;2023-04-01T18:44:48;4.30;;;1.20;;
68800;SDS011;55784;50.734;7.086;2023-04-01T18:50:02;4.70;;;1.30;;
68800;SDS011;55784;50.734;7.086;2023-04-01T18:52:44;4.40;;;1.30;;
68800;SDS011;55784;50.734;7.086;2023-04-01T19:07:21;4.70;;;1.30;;
68800;SDS011;55784;50.734;7.086;2023-04-01T19:09:17;4.40;;;1.33;;
68800;SDS011;55784;50.734;7.086;2023-04-01T19:17:47;5.20;;;1.35;;
68800;SDS011;55784;50.734;7.086;2023-04-01T19:25:38;4.80;;;1.42;;
68800;SDS011;55784;50.734;7.086;2023-04-01T19:28:22;6.38;;;1.38;;
68800;SDS011;55784;50.734;7.086;2023-04-01T19:36:47;5.22;;;1.65;;
68800;SDS011;55784;50.734;7.086;2023-04-01T19:48:17;5.90;;;1.80;;
68800;SDS011;55784;50.734;7.086;2023-04-01T19:51:03;5.40;;;1.70;;
68800;SDS011;55784;50.734;7.086;2023-04-01T19:53:45;6.13;;;1.70;;
68800;SDS011;55784;50.734;7.086;2023-04-01T20:03:07;5.88;;;2.08;;
68800;SDS011;55784;50.734;7.086;2023-04-01T20:06:02;5.07;;;1.60;;
68800;SDS011;55784;50.734;7.086;2023-04-01T20:08:49;5.30;;;1.67;;
68800;SDS011;55784;50.734;7.086;2023-04-01T20:16:58;5.43;;;1.98;;
68800;SDS011;55784;50.734;7.086;2023-04-01T20:26:13;4.22;;;1.30;;
68800;SDS011;55784;50.734;7.086;2023-04-01T20:31:27;4.18;;;1.27;;
68800;SDS011;55784;50.734;7.086;2023-04-01T21:50:07;5.32;;;1.10;;
68800;SDS011;55784;50.734;7.086;2023-04-01T22:09:29;3.80;;;0.90;;
68800;SDS011;55784;50.734;7.086;2023-04-01T22:16:16;3.90;;;1.23;;
68800;SDS011;55784;50.734;7.086;2023-04-01T22:50:02;3.83;;;0.98;;
68800;SDS011;55784;50.734;7.086;2023-04-01T22:59:04;4.30;;;0.90;;
68800;SDS011;55784;50.734;7.086;2023-04-01T23:05:21;4.93;;;1.35;;
68800;SDS011;55784;50.734;7.086;2023-04-01T23:08:04;3.58;;;0.90;;
68800;SDS011;55784;50.734;7.086;2023-04-01T23:13:12;4.05;;;0.88;;
68800;SDS011;55784;50.734;7.086;2023-04-01T23:15:43;3.50;;;0.65;;
68800;SDS011;55784;50.734;7.086;2023-04-01T23:23:32;4.70;;;1.10;;
68800;SDS011;55784;50.734;7.086;2023-04-01T23:26:07;4.55;;;0.90;;
68800;SDS011;55784;50.734;7.086;2023-04-01T23:28:44;3.30;;;0.90;;
68800;SDS011;55784;50.734;7.086;2023-04-01T23:34:00;4.00;;;0.90;;
68800;SDS011;55784;50.734;7.086;2023-04-01T23:36:44;3.42;;;0.90;;
68800;SDS011;55784;50.734;7.086;2023-04-01T23:42:06;4.35;;;0.90;;
68800;SDS011;55784;50.734;7.086;2023-04-01T23:44:38;4.55;;;1.00;;
68800;SDS011;55784;50.734;7.086;2023-04-01T23:47:04;3.22;;;0.70;;
68800;SDS011;55784;50.734;7.086;2023-04-01T23:49:33;4.53;;;1.00;;
68800;SDS011;55784;50.734;7.086;2023-04-01T23:54:47;5.53;;;1.20;;
68800;SDS011;55784;50.734;7.086;2023-04-01T23:57:24;3.97;;;1.05;;
